Westland, Michigan
Current Conditions -  °F | °C
As of 5:06 AM on Saturday 25 Oct 2014 (Local Time) from KDTW Reporting Station
Haze Haze  
Wind Chill: 41°   Ceiling: Unl
Heat Index: 45°   Visibility: 2.5mi
Dew Point: 43°   Wind: 6mph
Humidity: 93%   Direction: 180°S
Pressure: 29.89"   Gusts: NA
Location:  42.32°N, 83.4°W
Report Text: KDTW 250906Z 18005KT 2 1/2SM BR SCT220 07/06 A2989 RMK AO2 TWR VIS 4
Loading
Personal Weather Stations






























Interactive Weather Map
Tropical Storm Tracking
New forecast layout! Learn more

10-Day Weather Forecast

Advertisements
Track Severe Weather on mobile